Map

Track Data

SID SEASON NUMBER BASIN SUBBASIN NAME ISO_TIME NATURE LAT LON WMO_WIND WMO_PRES WMO_AGENCY TRACK_TYPE DIST2LAND LANDFALL IFLAG USA_AGENCY USA_ATCF_ID USA_LAT USA_LON USA_RECORD USA_STATUS USA_WIND USA_PRES USA_SSHS USA_R34_NE USA_R34_SE USA_R34_SW USA_R34_NW USA_R50_NE USA_R50_SE USA_R50_SW USA_R50_NW USA_R64_NE USA_R64_SE USA_R64_SW USA_R64_NW USA_POCI USA_ROCI USA_RMW USA_EYE TOKYO_LAT TOKYO_LON TOKYO_GRADE TOKYO_WIND TOKYO_PRES TOKYO_R50_DIR TOKYO_R50_LONG TOKYO_R50_SHORT TOKYO_R30_DIR TOKYO_R30_LONG TOKYO_R30_SHORT TOKYO_LAND CMA_LAT CMA_LON CMA_CAT CMA_WIND CMA_PRES HKO_LAT HKO_LON HKO_CAT HKO_WIND HKO_PRES NEWDELHI_LAT NEWDELHI_LON NEWDELHI_GRADE NEWDELHI_WIND NEWDELHI_PRES NEWDELHI_CI NEWDELHI_DP NEWDELHI_POCI REUNION_LAT REUNION_LON REUNION_TYPE REUNION_WIND REUNION_PRES REUNION_TNUM REUNION_CI REUNION_RMW REUNION_R34_NE REUNION_R34_SE REUNION_R34_SW REUNION_R34_NW REUNION_R50_NE REUNION_R50_SE REUNION_R50_SW REUNION_R50_NW REUNION_R64_NE REUNION_R64_SE REUNION_R64_SW REUNION_R64_NW BOM_LAT BOM_LON BOM_TYPE BOM_WIND BOM_PRES BOM_TNUM BOM_CI BOM_RMW BOM_R34_NE BOM_R34_SE BOM_R34_SW BOM_R34_NW BOM_R50_NE BOM_R50_SE BOM_R50_SW BOM_R50_NW BOM_R64_NE BOM_R64_SE BOM_R64_SW BOM_R64_NW BOM_ROCI BOM_POCI BOM_EYE BOM_POS_METHOD BOM_PRES_METHOD NADI_LAT NADI_LON NADI_CAT NADI_WIND NADI_PRES WELLINGTON_LAT WELLINGTON_LON WELLINGTON_WIND WELLINGTON_PRES DS824_LAT DS824_LON DS824_STAGE DS824_WIND DS824_PRES TD9636_LAT TD9636_LON TD9636_STAGE TD9636_WIND TD9636_PRES TD9635_LAT TD9635_LON TD9635_WIND TD9635_PRES TD9635_ROCI NEUMANN_LAT NEUMANN_LON NEUMANN_CLASS NEUMANN_WIND NEUMANN_PRES MLC_LAT MLC_LON MLC_CLASS MLC_WIND MLC_PRES USA_GUST BOM_GUST BOM_GUST_PER REUNION_GUST REUNION_GUST_PER USA_SEAHGT USA_SEARAD_NE USA_SEARAD_SE USA_SEARAD_SW USA_SEARAD_NW STORM_SPEED STORM_DIR
1889252N31307 1889 20 NA NA NOT_NAMED 1889-09-08 12:00:00 TS 31.0000 -53.0000 main 1729 1715 _____________O -1 31.0000 -53.0000 TD 25 12 74
1889252N31307 1889 20 NA NA NOT_NAMED 1889-09-08 15:00:00 TS 31.1633 -52.3406 main 1716 1706 _____________P -1 31.1633 -52.3406 TD 27 12 75
1889252N31307 1889 20 NA NA NOT_NAMED 1889-09-08 18:00:00 TS 31.3000 -51.7000 main 1708 1699 _____________O -1 31.3000 -51.7000 TD 30 11 78
1889252N31307 1889 20 NA NA NOT_NAMED 1889-09-08 21:00:00 TS 31.3996 -51.0921 main 1701 1693 _____________P -1 31.3996 -51.0921 TD 32 10 79
1889252N31307 1889 20 NA NA NOT_NAMED 1889-09-09 00:00:00 TS 31.5000 -50.5000 main 1696 1687 _____________O -1 31.5000 -50.5000 TS 35 10 76
1889252N31307 1889 20 NA NA NOT_NAMED 1889-09-09 03:00:00 TS 31.6496 -49.9076 main 1693 1677 _____________P -1 31.6496 -49.9076 TS 37 11 74
1889252N31307 1889 20 NA NA NOT_NAMED 1889-09-09 06:00:00 TS 31.8000 -49.3000 main 1680 1673 _____________O -1 31.8000 -49.3000 TS 40 10 76
1889252N31307 1889 20 NA NA NOT_NAMED 1889-09-09 09:00:00 TS 31.9056 -48.7394 main 1680 1675 _____________P -1 31.9056 -48.7394 TS 42 11 80
1889252N31307 1889 20 NA NA NOT_NAMED 1889-09-09 12:00:00 TS 32.0000 -48.0000 main 1684 1684 _____________O -1 32.0000 -48.0000 TS 45 16 83
1889252N31307 1889 20 NA NA NOT_NAMED 1889-09-09 15:00:00 TS 32.1006 -46.8899 main 1700 1700 _____________P -1 32.1006 -46.8899 TS 47 20 84
1889252N31307 1889 20 NA NA NOT_NAMED 1889-09-09 18:00:00 TS 32.2000 -45.6000 main 1727 1727 _____________O -1 32.2000 -45.6000 TS 50 21 85
1889252N31307 1889 20 NA NA NOT_NAMED 1889-09-09 21:00:00 TS 32.2990 -44.3572 main 1758 1758 _____________P -1 32.2990 -44.3572 TS 52 21 85
1889252N31307 1889 20 NA NA NOT_NAMED 1889-09-10 00:00:00 TS 32.4000 -43.1000 main 1797 1797 _____________O -1 32.4000 -43.1000 TS 55 21 85
1889252N31307 1889 20 NA NA NOT_NAMED 1889-09-10 03:00:00 TS 32.4990 -41.8423 main 1843 1843 _____________P -1 32.4990 -41.8423 TS 57 21 85
1889252N31307 1889 20 NA NA NOT_NAMED 1889-09-10 06:00:00 TS 32.6000 -40.6000 main 1888 1888 _____________O -1 32.6000 -40.6000 TS 60 20 89
1889252N31307 1889 20 NA NA NOT_NAMED 1889-09-10 09:00:00 TS 32.5477 -39.4224 main 1957 1952 _____________P -1 32.5477 -39.4224 TS 60 20 84
1889252N31307 1889 20 NA NA NOT_NAMED 1889-09-10 12:00:00 TS 32.8000 -38.2000 main 1991 1981 _____________O -1 32.8000 -38.2000 TS 60 25 61
1889252N31307 1889 20 NA NA NOT_NAMED 1889-09-10 15:00:00 TS 33.7470 -36.8629 main 1984 1902 _____________P -1 33.7470 -36.8629 TS 60 33 48
1889252N31307 1889 20 NA NA NOT_NAMED 1889-09-10 18:00:00 TS 35.0000 -35.3000 main 1897 1785 _____________O -1 35.0000 -35.3000 TS 60 37 51
1889252N31307 1889 20 NA NA NOT_NAMED 1889-09-10 21:00:00 TS 36.1035 -33.3509 main 1781 1684 _____________P -1 36.1035 -33.3509 TS 57 38 55
1889252N31307 1889 20 NA NA NOT_NAMED 1889-09-11 00:00:00 TS 37.2000 -31.4000 main 1682 1645 _____________O -1 37.2000 -31.4000 TS 55 35 52
1889252N31307 1889 20 NA NA NOT_NAMED 1889-09-11 03:00:00 TS 38.3022 -29.8753 main 1645 1634 _____________P -1 38.3022 -29.8753 TS 52 32 46
1889252N31307 1889 20 NA NA NOT_NAMED 1889-09-11 06:00:00 ET 39.4000 -28.5000 main 1633 1488 _____________O -1 39.4000 -28.5000 EX 50 32 46
1889252N31307 1889 20 NA NA NOT_NAMED 1889-09-11 09:00:00 ET 40.4815 -26.9041 main 1477 1347 _____________P -1 40.4815 -26.9041 EX 47 31 47
1889252N31307 1889 20 NA NA NOT_NAMED 1889-09-11 12:00:00 ET 41.5000 -25.5000 main 1336 1245 _____________O -1 41.5000 -25.5000 EX 45 26 42
1889252N31307 1889 20 NA NA NOT_NAMED 1889-09-11 15:00:00 ET 42.4264 -24.5875 main 1245 1179 _____________P -1 42.4264 -24.5875 EX 45 22 33
1889252N31307 1889 20 NA NA NOT_NAMED 1889-09-11 18:00:00 ET 43.3000 -23.9000 main 1179 1121 _____________O -1 43.3000 -23.9000 EX 45 20 31
1889252N31307 1889 20 NA NA NOT_NAMED 1889-09-11 21:00:00 ET 44.1552 -23.1424 main 1113 1058 _____________P -1 44.1552 -23.1424 EX 45 20 34
1889252N31307 1889 20 NA NA NOT_NAMED 1889-09-12 00:00:00 ET 45.0000 -22.3000 main 1058 _____________O -1 45.0000 -22.3000 EX 45 21 35

About IBTrACS Database

This database is a web-friendly format of International Best Track Archive for Climate Stewardship (IBTrACS), a global best track data archive curated by NOAA dating back to 1842.

Updated: 2021-11-26